createdAt,value
2023-05-14T00:00:00.588Z,12
2023-05-14T00:10:00.526Z,12
2023-05-14T00:20:00.545Z,12
2023-05-14T00:30:00.599Z,11
2023-05-14T00:40:00.682Z,11
2023-05-14T00:50:00.514Z,11
2023-05-14T01:00:00.558Z,11
2023-05-14T01:10:00.515Z,11
2023-05-14T01:20:00.539Z,9
2023-05-14T01:30:00.534Z,10
2023-05-14T01:40:00.564Z,9
2023-05-14T01:50:00.671Z,10
2023-05-14T02:00:00.558Z,11
2023-05-14T02:10:00.534Z,9
2023-05-14T02:20:00.890Z,7
2023-05-14T02:30:00.558Z,6
2023-05-14T02:40:00.538Z,6
2023-05-14T02:50:00.531Z,8
2023-05-14T03:00:00.624Z,8
2023-05-14T03:10:00.526Z,8
2023-05-14T03:20:00.557Z,9
2023-05-14T03:30:00.594Z,8
2023-05-14T03:40:01.938Z,9
2023-05-14T03:50:00.635Z,10
2023-05-14T04:00:00.591Z,9
2023-05-14T04:10:03.349Z,10
2023-05-14T04:20:00.548Z,12
2023-05-14T04:30:00.527Z,16
2023-05-14T04:40:00.534Z,19
2023-05-14T04:50:00.511Z,19
2023-05-14T05:00:00.657Z,18
2023-05-14T05:10:00.650Z,15
2023-05-14T05:20:00.710Z,13
2023-05-14T05:30:00.669Z,13
2023-05-14T05:40:01.153Z,27
2023-05-14T05:50:00.722Z,20
2023-05-14T06:00:00.599Z,25
2023-05-14T06:10:00.539Z,29
2023-05-14T06:20:00.554Z,34
2023-05-14T06:30:00.695Z,38
2023-05-14T06:40:00.578Z,42
2023-05-14T06:50:00.568Z,41
2023-05-14T07:00:02.846Z,46
2023-05-14T07:10:00.543Z,67
2023-05-14T07:20:00.496Z,64
2023-05-14T07:30:00.469Z,76
2023-05-14T07:40:00.571Z,84
2023-05-14T07:50:00.493Z,102
2023-05-14T08:00:00.484Z,88
2023-05-14T08:10:00.505Z,88
2023-05-14T08:20:00.483Z,109
2023-05-14T08:30:00.517Z,297
2023-05-14T08:40:00.513Z,391
2023-05-14T08:50:00.555Z,299
2023-05-14T09:00:00.503Z,316
2023-05-14T09:10:00.480Z,325
2023-05-14T09:20:00.531Z,279
2023-05-14T09:30:00.886Z,258
2023-05-14T09:40:00.467Z,222
2023-05-14T09:50:00.525Z,217
2023-05-14T10:00:00.654Z,179
2023-05-14T10:10:00.468Z,178
2023-05-14T10:20:00.488Z,226
2023-05-14T10:30:00.486Z,258
2023-05-14T10:40:00.502Z,231
2023-05-14T10:50:00.459Z,231
2023-05-14T11:00:00.471Z,157
2023-05-14T11:10:00.551Z,164
2023-05-14T11:20:00.516Z,204
2023-05-14T11:30:00.488Z,148
2023-05-14T11:40:00.315Z,147
2023-05-14T11:50:00.229Z,198
2023-05-14T12:00:00.296Z,175
2023-05-14T12:10:00.777Z,154
2023-05-14T12:20:00.759Z,104
2023-05-14T12:30:12.986Z,137
2023-05-14T12:40:00.639Z,272
2023-05-14T12:50:00.599Z,238
2023-05-14T13:00:00.604Z,171
2023-05-14T13:10:00.613Z,230
2023-05-14T13:20:00.596Z,175
2023-05-14T13:30:00.834Z,161
2023-05-14T13:40:00.629Z,159
2023-05-14T13:50:00.649Z,162
2023-05-14T14:00:00.592Z,170
2023-05-14T14:10:00.585Z,146
2023-05-14T14:20:00.585Z,118
2023-05-14T14:30:00.614Z,140
2023-05-14T14:40:00.777Z,106
2023-05-14T14:50:00.583Z,155
2023-05-14T15:00:02.326Z,98
2023-05-14T15:10:00.609Z,73
2023-05-14T15:20:00.611Z,53
2023-05-14T15:30:00.605Z,65
2023-05-14T15:40:00.609Z,28
2023-05-14T15:50:00.661Z,15
2023-05-14T16:00:00.599Z,11
2023-05-14T16:10:00.606Z,35
2023-05-14T16:20:00.748Z,51
2023-05-14T16:30:00.636Z,34
2023-05-14T16:40:00.620Z,60
2023-05-14T16:50:00.593Z,104
2023-05-14T17:00:00.819Z,228
2023-05-14T17:10:00.675Z,79
2023-05-14T17:20:01.009Z,117
2023-05-14T17:30:00.632Z,92
2023-05-14T17:40:00.635Z,60
2023-05-14T17:50:00.586Z,89
2023-05-14T18:00:00.825Z,41
2023-05-14T18:10:00.682Z,34
2023-05-14T18:20:00.624Z,17
2023-05-14T18:30:00.652Z,17
2023-05-14T18:40:00.610Z,36
2023-05-14T18:50:00.652Z,18
2023-05-14T19:00:00.615Z,17
2023-05-14T19:10:00.634Z,11
2023-05-14T19:20:00.700Z,48
2023-05-14T19:30:00.600Z,193
2023-05-14T19:40:00.603Z,135
2023-05-14T19:50:00.618Z,53
2023-05-14T20:00:00.622Z,62
2023-05-14T20:10:00.620Z,81
2023-05-14T20:20:00.609Z,27
2023-05-14T20:30:00.759Z,103
2023-05-14T20:40:00.769Z,92
2023-05-14T20:50:01.924Z,70
2023-05-14T21:00:00.625Z,68
2023-05-14T21:10:00.663Z,56
2023-05-14T21:20:00.615Z,65
2023-05-14T21:30:00.607Z,71
2023-05-14T21:40:00.702Z,42
2023-05-14T21:50:00.617Z,36
2023-05-14T22:00:00.723Z,35
2023-05-14T22:10:00.626Z,21
2023-05-14T22:20:00.659Z,45
2023-05-14T22:30:00.608Z,31
2023-05-14T22:40:00.653Z,25
2023-05-14T22:50:00.683Z,22
2023-05-14T23:00:00.598Z,27
2023-05-14T23:10:00.590Z,32
2023-05-14T23:20:00.608Z,63
2023-05-14T23:30:00.609Z,71
2023-05-14T23:40:00.611Z,72
2023-05-14T23:50:00.610Z,49
